Terminal Aerodrome Forecast
Issued by NWS

Home | Current Version | Previous Version | Text Only | Print | Product List | Glossary On
Versions: 1 2 3 4 5 6 7 8 9 10 11 12 13 14 15
000
FTAK31 PAJN 231100
TAFAKT
TAF
PAKT 231125Z 2312/2412 VRB03KT P6SM SCT050
     FM231800 34007KT P6SM SCT050 SCT100
     FM240300 VRB03KT P6SM SCT050 BKN100
     FM240900 VRB03KT P6SM BKN050 BKN100
      AMD NOT SKED=

USA.gov is the U.S. government's official web portal to all federal, state and local government web resources and services.